Time;durP1;ratioP1;P1;durP2;ratioP2;P2;SDS_P1;SDS_P2;PMS_P1;PMS_P2;Temp;Humidity;BMP_temperature;BMP_pressure;BME280_temperature;BME280_humidity;BME280_pressure;Samples;Min_cycle;Max_cycle;Signal;HPM_P1;HPM_P2
2024/01/20 00:00:17;;;;;;;25.63;11.77;;;-0.30;70.10;;;;;;4949540;28;20457;-62
2024/01/20 00:02:43;;;;;;;25.52;12.35;;;-0.30;70.30;;;;;;4948603;28;20063;-62
2024/01/20 00:05:08;;;;;;;29.83;13.40;;;-0.40;70.30;;;;;;4943706;28;20058;-64
2024/01/20 00:07:34;;;;;;;31.15;12.50;;;-0.30;70.40;;;;;;4946410;28;20386;-63
2024/01/20 00:10:00;;;;;;;25.52;13.15;;;-0.40;70.40;;;;;;4950426;28;20407;-62
2024/01/20 00:12:25;;;;;;;24.17;12.93;;;-0.40;70.00;;;;;;4946122;28;20631;-63
2024/01/20 00:14:51;;;;;;;25.88;12.68;;;-0.40;70.10;;;;;;4948280;28;20031;-62
2024/01/20 00:17:17;;;;;;;27.98;12.93;;;-0.40;70.80;;;;;;4947041;28;20043;-63
2024/01/20 00:19:43;;;;;;;36.22;13.88;;;-0.40;70.20;;;;;;4950820;28;20487;-63
2024/01/20 00:22:08;;;;;;;27.63;12.98;;;-0.50;70.30;;;;;;4944897;28;20450;-63
2024/01/20 00:24:34;;;;;;;26.75;12.98;;;-0.50;70.20;;;;;;4944412;28;20054;-63
2024/01/20 00:27:00;;;;;;;29.70;13.77;;;-0.50;70.20;;;;;;4944177;28;20043;-61
2024/01/20 00:29:25;;;;;;;32.00;14.65;;;-0.60;70.20;;;;;;4947733;28;20027;-62
2024/01/20 00:31:51;;;;;;;27.25;13.55;;;-0.60;69.90;;;;;;4944873;28;20027;-62
2024/01/20 00:34:16;;;;;;;26.27;13.23;;;-0.70;69.90;;;;;;4946259;28;20042;-62
2024/01/20 00:36:42;;;;;;;25.17;12.18;;;-0.70;70.20;;;;;;4947827;28;20400;-62
2024/01/20 00:39:08;;;;;;;24.98;12.38;;;-0.70;70.50;;;;;;4942503;28;20558;-63
2024/01/20 00:41:34;;;;;;;27.13;12.93;;;-0.60;70.70;;;;;;4944871;28;20485;-61
2024/01/20 00:43:59;;;;;;;24.65;12.43;;;-0.70;70.70;;;;;;4945798;28;20410;-62
2024/01/20 00:46:26;;;;;;;23.23;12.23;;;-0.70;70.90;;;;;;4867061;28;20069;-62
2024/01/20 00:48:52;;;;;;;22.20;12.05;;;-0.70;70.80;;;;;;4945903;28;20382;-62
2024/01/20 00:51:17;;;;;;;23.23;11.60;;;-0.70;70.70;;;;;;4948123;28;20032;-62
2024/01/20 00:53:43;;;;;;;22.13;11.57;;;-0.70;70.60;;;;;;4946708;28;20823;-61
2024/01/20 00:56:09;;;;;;;20.77;11.18;;;-0.70;70.60;;;;;;4949516;28;20035;-62
2024/01/20 00:58:34;;;;;;;23.20;11.48;;;-0.80;70.60;;;;;;4946363;28;20114;-62
2024/01/20 01:01:00;;;;;;;23.98;11.23;;;-0.80;70.50;;;;;;4943629;28;20035;-61
2024/01/20 01:03:25;;;;;;;24.13;11.10;;;-0.80;70.60;;;;;;4947863;28;20027;-62
2024/01/20 01:05:51;;;;;;;21.58;10.20;;;-0.80;70.70;;;;;;4945960;28;20047;-62
2024/01/20 01:08:17;;;;;;;19.58;9.85;;;-0.90;70.60;;;;;;4951812;28;20095;-62
2024/01/20 01:10:42;;;;;;;19.83;10.05;;;-0.90;70.60;;;;;;4947330;28;20034;-63
2024/01/20 01:13:08;;;;;;;19.40;10.48;;;-0.90;70.50;;;;;;4951057;28;20038;-62
2024/01/20 01:15:34;;;;;;;23.27;10.02;;;-0.90;70.70;;;;;;4944200;28;20038;-62
2024/01/20 01:17:59;;;;;;;16.38;9.32;;;-0.90;70.90;;;;;;4955896;28;20027;-62
2024/01/20 01:20:25;;;;;;;16.80;9.35;;;-0.90;70.80;;;;;;4950444;28;20027;-64
2024/01/20 01:22:51;;;;;;;17.88;9.57;;;-0.80;70.80;;;;;;4950814;28;20054;-62
2024/01/20 01:25:17;;;;;;;17.40;9.23;;;-0.80;70.90;;;;;;4950310;28;20074;-62
2024/01/20 01:27:43;;;;;;;23.80;8.98;;;-1.00;71.00;;;;;;4949396;28;20771;-61
2024/01/20 01:30:09;;;;;;;15.75;8.40;;;-1.00;71.00;;;;;;4953421;28;20031;-61
2024/01/20 01:32:35;;;;;;;16.90;9.35;;;-1.00;71.00;;;;;;4949250;28;20039;-62
2024/01/20 01:35:00;;;;;;;17.27;9.70;;;-0.90;70.90;;;;;;4947103;28;20023;-62
2024/01/20 01:37:26;;;;;;;19.80;9.35;;;-1.00;71.00;;;;;;4952019;28;20063;-62
2024/01/20 01:39:51;;;;;;;21.65;10.30;;;-1.00;70.60;;;;;;4938342;28;20390;-62
2024/01/20 01:42:17;;;;;;;21.98;10.75;;;-1.00;70.60;;;;;;4934272;28;20461;-62
2024/01/20 01:44:43;;;;;;;21.77;11.48;;;-0.90;70.80;;;;;;4947552;28;20550;-63
2024/01/20 01:47:10;;;;;;;18.80;10.35;;;-1.00;70.60;;;;;;4936973;28;20099;-62
2024/01/20 01:49:36;;;;;;;22.00;10.27;;;-1.00;70.80;;;;;;4948371;28;20023;-64
2024/01/20 01:52:02;;;;;;;18.42;10.27;;;-1.10;70.80;;;;;;4954554;28;20037;-62
2024/01/20 01:54:28;;;;;;;17.08;9.98;;;-1.10;71.00;;;;;;4952609;28;20034;-62
2024/01/20 01:56:59;;;;;;;19.48;9.43;;;-0.80;71.20;;;;;;4949825;28;20041;-64
2024/01/20 01:59:29;;;;;;;23.00;10.52;;;-1.00;71.20;;;;;;4944403;28;20027;-62
2024/01/20 02:01:55;;;;;;;23.08;9.80;;;-1.10;71.10;;;;;;4946996;28;20035;-63
2024/01/20 02:04:20;;;;;;;21.17;10.38;;;-1.00;71.10;;;;;;4949558;28;20051;-62
2024/01/20 02:06:47;;;;;;;20.38;10.02;;;-1.10;71.20;;;;;;4946180;28;20054;-63
2024/01/20 02:09:13;;;;;;;19.00;10.10;;;-1.00;71.30;;;;;;4953591;28;20478;-62
2024/01/20 02:11:39;;;;;;;22.17;11.13;;;-1.00;71.30;;;;;;4954299;28;20486;-62
2024/01/20 02:14:06;;;;;;;20.02;11.32;;;-1.00;71.40;;;;;;4952008;28;20031;-63
2024/01/20 02:16:31;;;;;;;17.95;9.80;;;-1.00;71.20;;;;;;4948920;28;20739;-63
2024/01/20 02:19:06;;;;;;;22.45;10.55;;;-1.00;71.30;;;;;;4954477;28;20086;-62
2024/01/20 02:21:32;;;;;;;19.58;9.55;;;-0.90;71.20;;;;;;4949984;28;20180;-61
2024/01/20 02:23:59;;;;;;;18.58;9.30;;;-0.80;71.00;;;;;;4944507;28;20023;-63
2024/01/20 02:26:28;;;;;;;19.40;10.00;;;-1.00;71.50;;;;;;4944818;28;20038;-64
2024/01/20 02:28:54;;;;;;;22.23;10.48;;;-1.00;70.50;;;;;;4949090;28;20027;-61
2024/01/20 02:31:20;;;;;;;17.77;9.68;;;-1.10;70.50;;;;;;4948460;28;20367;-63
2024/01/20 02:33:45;;;;;;;18.83;9.75;;;-1.10;70.40;;;;;;4954451;28;20057;-63
2024/01/20 02:36:11;;;;;;;18.17;9.82;;;-1.10;70.40;;;;;;4952254;28;20039;-62
2024/01/20 02:38:37;;;;;;;19.48;10.15;;;-1.20;70.60;;;;;;4953990;28;20046;-64
2024/01/20 02:41:03;;;;;;;29.45;11.82;;;-1.20;70.80;;;;;;4950008;28;20362;-62
2024/01/20 02:43:28;;;;;;;24.92;10.68;;;-1.20;71.00;;;;;;4952825;28;20030;-63
2024/01/20 02:45:54;;;;;;;23.73;11.18;;;-1.20;71.10;;;;;;4880742;28;20031;-62
2024/01/20 02:48:20;;;;;;;24.85;11.15;;;-1.20;71.00;;;;;;4928049;28;20027;-62
2024/01/20 02:50:45;;;;;;;26.13;10.85;;;-1.20;71.00;;;;;;4946131;28;20028;-62
2024/01/20 02:53:11;;;;;;;31.33;12.70;;;-1.30;70.90;;;;;;4948286;28;20479;-64
2024/01/20 02:55:37;;;;;;;24.38;11.80;;;-1.30;70.70;;;;;;4950784;28;20031;-62
2024/01/20 02:58:02;;;;;;;24.33;11.32;;;-1.30;70.90;;;;;;4951269;28;20710;-62
2024/01/20 03:00:28;;;;;;;24.98;11.75;;;-1.30;71.30;;;;;;4946810;28;20028;-63
2024/01/20 03:02:55;;;;;;;24.52;11.25;;;-1.30;71.50;;;;;;4954317;28;20323;-63
2024/01/20 03:05:20;;;;;;;25.58;11.73;;;-1.30;71.70;;;;;;4948801;28;20482;-63
2024/01/20 03:07:46;;;;;;;25.50;11.82;;;-1.30;71.80;;;;;;4954259;28;20027;-63
2024/01/20 03:10:13;;;;;;;21.17;11.13;;;-1.30;71.80;;;;;;4946626;28;20419;-62
2024/01/20 03:12:39;;;;;;;21.17;11.15;;;-1.30;71.80;;;;;;4946586;28;20577;-62
2024/01/20 03:15:07;;;;;;;18.85;9.63;;;-1.10;71.90;;;;;;4949011;28;20126;-63
2024/01/20 03:17:32;;;;;;;19.40;8.98;;;-1.30;71.80;;;;;;4947091;28;20557;-62
2024/01/20 03:19:58;;;;;;;18.20;9.43;;;-1.20;71.60;;;;;;4951281;28;20035;-63
2024/01/20 03:22:23;;;;;;;17.48;9.10;;;-1.20;71.10;;;;;;4953705;28;20037;-63
2024/01/20 03:24:49;;;;;;;14.73;9.00;;;-1.20;70.80;;;;;;4945270;28;20118;-62
2024/01/20 03:27:17;;;;;;;17.13;8.55;;;-1.10;70.70;;;;;;4947340;28;20431;-62
2024/01/20 03:29:43;;;;;;;20.52;9.48;;;-1.30;70.40;;;;;;4948228;28;20027;-62
2024/01/20 03:32:08;;;;;;;17.73;9.27;;;-1.40;70.00;;;;;;4947855;28;20046;-62
2024/01/20 03:34:34;;;;;;;16.20;8.80;;;-1.40;69.90;;;;;;4945970;28;20030;-63
2024/01/20 03:37:00;;;;;;;15.90;8.73;;;-1.40;69.90;;;;;;4945949;28;20462;-63
2024/01/20 03:39:25;;;;;;;16.10;9.40;;;-1.40;69.70;;;;;;4951922;28;20364;-63
2024/01/20 03:41:51;;;;;;;17.08;9.30;;;-1.50;69.60;;;;;;4949293;28;20405;-62
2024/01/20 03:44:17;;;;;;;16.35;9.30;;;-1.50;69.50;;;;;;4948669;28;20049;-62
2024/01/20 03:46:42;;;;;;;18.80;8.68;;;-1.60;69.50;;;;;;4892935;28;20045;-64
2024/01/20 03:49:08;;;;;;;16.63;8.82;;;-1.60;69.70;;;;;;4947311;28;20110;-62
2024/01/20 03:51:34;;;;;;;18.38;10.30;;;-1.60;69.80;;;;;;4953272;28;20629;-64
2024/01/20 03:54:01;;;;;;;18.23;9.75;;;-1.60;69.90;;;;;;4946871;28;20019;-64
2024/01/20 03:56:27;;;;;;;16.23;9.65;;;-1.70;70.10;;;;;;4944951;28;20509;-61
2024/01/20 03:58:53;;;;;;;20.50;10.23;;;-1.70;70.20;;;;;;4948040;28;20039;-63
2024/01/20 04:01:18;;;;;;;19.70;10.23;;;-1.70;70.30;;;;;;4943727;28;20420;-64
2024/01/20 04:03:44;;;;;;;17.17;9.60;;;-1.70;70.30;;;;;;4950623;28;20035;-62
2024/01/20 04:06:10;;;;;;;19.20;9.70;;;-1.70;69.80;;;;;;4956553;28;20572;-64
2024/01/20 04:08:36;;;;;;;16.15;9.05;;;-1.80;69.70;;;;;;4951124;28;20561;-61
2024/01/20 04:11:03;;;;;;;19.23;10.25;;;-1.60;69.80;;;;;;4946875;28;20066;-61
2024/01/20 04:13:28;;;;;;;18.50;9.73;;;-1.80;69.50;;;;;;4945636;28;20061;-63
2024/01/20 04:15:55;;;;;;;15.23;8.55;;;-1.80;69.30;;;;;;4942961;28;20023;-62
2024/01/20 04:18:21;;;;;;;18.15;9.02;;;-1.90;69.40;;;;;;4945805;28;20059;-63
2024/01/20 04:20:46;;;;;;;13.52;7.93;;;-2.00;69.30;;;;;;4945998;28;20066;-63
2024/01/20 04:23:12;;;;;;;19.13;9.15;;;-1.80;69.60;;;;;;4950428;28;20054;-63
2024/01/20 04:25:38;;;;;;;17.73;9.43;;;-2.10;69.60;;;;;;4943811;28;20027;-63
2024/01/20 04:28:04;;;;;;;16.02;8.70;;;-2.10;69.60;;;;;;4950341;28;20063;-63
2024/01/20 04:30:29;;;;;;;14.07;8.45;;;-2.10;69.70;;;;;;4945093;28;20031;-61
2024/01/20 04:32:55;;;;;;;14.90;8.48;;;-1.90;69.90;;;;;;4950975;28;20037;-61
2024/01/20 04:35:21;;;;;;;20.33;8.82;;;-1.80;70.10;;;;;;4944915;28;20039;-61
2024/01/20 04:37:46;;;;;;;14.98;8.45;;;-2.10;70.00;;;;;;4944445;28;20063;-63
2024/01/20 04:40:12;;;;;;;16.83;8.95;;;-2.00;70.10;;;;;;4949555;28;20043;-63
2024/01/20 04:42:38;;;;;;;14.45;8.50;;;-2.10;70.10;;;;;;4944472;28;20027;-62
2024/01/20 04:45:04;;;;;;;17.17;9.02;;;-2.10;69.80;;;;;;4870795;28;20564;-60
2024/01/20 04:47:33;;;;;;;14.73;8.07;;;-2.10;70.50;;;;;;4944529;28;20058;-62
2024/01/20 04:49:58;;;;;;;15.70;8.77;;;-2.10;69.80;;;;;;4944913;28;20022;-63
2024/01/20 04:52:24;;;;;;;15.20;8.55;;;-1.80;70.10;;;;;;4950308;28;20046;-63
2024/01/20 04:54:52;;;;;;;16.95;9.65;;;-2.00;70.00;;;;;;4958245;28;20033;-62
2024/01/20 04:57:19;;;;;;;22.00;10.48;;;-2.00;70.00;;;;;;4954367;28;20047;-63
2024/01/20 04:59:45;;;;;;;23.50;10.30;;;-2.00;70.10;;;;;;4955168;28;20030;-62
2024/01/20 05:02:10;;;;;;;19.27;9.60;;;-2.00;70.00;;;;;;4949776;28;20505;-62
2024/01/20 05:04:36;;;;;;;23.95;11.70;;;-2.00;70.00;;;;;;4951259;28;20430;-63
2024/01/20 05:07:02;;;;;;;20.08;10.85;;;-1.90;70.00;;;;;;4961553;28;20401;-63
2024/01/20 05:09:27;;;;;;;26.40;12.18;;;-1.90;69.90;;;;;;4950939;28;20034;-63
2024/01/20 05:11:53;;;;;;;23.40;11.80;;;-1.60;70.20;;;;;;4952180;28;20031;-63
2024/01/20 05:14:19;;;;;;;24.88;11.45;;;-1.70;70.20;;;;;;4952818;28;20034;-63
2024/01/20 05:16:44;;;;;;;29.02;12.02;;;-1.90;70.30;;;;;;4950509;28;20117;-63
2024/01/20 05:19:10;;;;;;;26.38;12.75;;;-1.60;70.80;;;;;;4952510;28;20038;-63
2024/01/20 05:21:37;;;;;;;33.10;14.38;;;-1.80;70.80;;;;;;4951609;28;20066;-62
2024/01/20 05:24:03;;;;;;;33.00;14.18;;;-1.80;71.00;;;;;;4950673;28;20050;-63
2024/01/20 05:26:30;;;;;;;26.77;14.00;;;-1.80;71.00;;;;;;4944246;28;20078;-61
2024/01/20 05:28:56;;;;;;;29.10;13.20;;;-1.70;71.10;;;;;;4951148;28;20059;-62
2024/01/20 05:31:24;;;;;;;28.30;13.00;;;-1.70;70.90;;;;;;4952239;28;20114;-62
2024/01/20 05:33:50;;;;;;;32.10;13.85;;;-1.70;70.70;;;;;;4951447;28;20171;-62
2024/01/20 05:36:16;;;;;;;28.05;13.10;;;-1.70;70.70;;;;;;4953167;28;20043;-62
2024/01/20 05:38:41;;;;;;;33.25;14.60;;;-1.70;70.80;;;;;;4956366;28;20515;-63
2024/01/20 05:41:08;;;;;;;30.08;15.10;;;-1.50;71.10;;;;;;4951336;28;20086;-63
2024/01/20 05:43:34;;;;;;;37.42;16.02;;;-1.60;71.00;;;;;;4948072;28;20039;-63
2024/01/20 05:46:03;;;;;;;29.67;15.18;;;-1.40;71.20;;;;;;4878816;28;20031;-61
2024/01/20 05:48:30;;;;;;;37.33;16.92;;;-1.70;70.90;;;;;;4950690;28;20032;-63
2024/01/20 05:50:56;;;;;;;33.08;14.18;;;-1.70;70.80;;;;;;4952103;28;20031;-62
2024/01/20 05:53:22;;;;;;;41.95;17.52;;;-1.50;70.80;;;;;;4951842;28;20462;-63
2024/01/20 05:55:48;;;;;;;35.42;15.20;;;-1.80;70.80;;;;;;4955009;28;20117;-63
2024/01/20 05:58:15;;;;;;;29.95;13.15;;;-1.70;70.90;;;;;;4956469;28;20031;-61
2024/01/20 06:00:40;;;;;;;37.67;14.68;;;-1.80;71.00;;;;;;4938226;28;20090;-64
2024/01/20 06:03:06;;;;;;;32.97;15.00;;;-1.70;71.30;;;;;;4949905;28;20043;-63
2024/01/20 06:05:32;;;;;;;34.25;14.82;;;-1.60;71.40;;;;;;4948621;28;20105;-63
2024/01/20 06:07:58;;;;;;;32.55;14.23;;;-1.80;71.40;;;;;;4939413;28;20656;-63
2024/01/20 06:10:24;;;;;;;31.13;14.23;;;-1.80;71.40;;;;;;4949965;28;20487;-63
2024/01/20 06:12:50;;;;;;;27.67;13.10;;;-1.60;71.50;;;;;;4950636;28;20035;-62
2024/01/20 06:15:15;;;;;;;29.00;12.35;;;-1.70;71.20;;;;;;4951095;28;20074;-62
2024/01/20 06:17:41;;;;;;;23.73;10.95;;;-1.70;71.40;;;;;;4954025;28;20054;-63
2024/01/20 06:20:07;;;;;;;25.67;11.13;;;-1.70;71.70;;;;;;4948304;28;20032;-63
2024/01/20 06:22:33;;;;;;;35.28;11.32;;;-1.70;71.80;;;;;;4952146;28;20039;-63
2024/01/20 06:24:58;;;;;;;29.98;12.38;;;-1.70;71.90;;;;;;4947361;28;20051;-62
2024/01/20 06:27:24;;;;;;;27.45;12.82;;;-1.60;72.00;;;;;;4947875;28;20041;-63
2024/01/20 06:29:50;;;;;;;33.92;11.20;;;-1.60;72.00;;;;;;4947597;28;20078;-63
2024/01/20 06:32:17;;;;;;;33.67;12.40;;;-1.60;71.80;;;;;;4951537;28;20031;-63
2024/01/20 06:34:42;;;;;;;26.08;12.27;;;-1.40;72.00;;;;;;4945543;28;20089;-63
2024/01/20 06:37:08;;;;;;;28.33;12.63;;;-1.50;71.80;;;;;;4955307;28;20146;-63
2024/01/20 06:39:34;;;;;;;26.70;11.55;;;-1.50;71.80;;;;;;4947392;28;20023;-62
2024/01/20 06:41:59;;;;;;;34.80;12.77;;;-1.40;71.70;;;;;;4937985;28;20375;-63
2024/01/20 06:44:25;;;;;;;27.98;11.82;;;-1.30;71.80;;;;;;4945648;28;20070;-63
2024/01/20 06:46:52;;;;;;;28.88;12.10;;;-1.50;71.50;;;;;;4875452;28;20038;-63
2024/01/20 06:49:18;;;;;;;42.25;16.75;;;-1.60;71.60;;;;;;4950201;28;20027;-61
2024/01/20 06:51:44;;;;;;;31.58;14.00;;;-1.60;71.70;;;;;;4946355;28;20466;-63
2024/01/20 06:54:10;;;;;;;29.25;13.43;;;-1.40;71.80;;;;;;4947736;28;20745;-64
2024/01/20 06:56:36;;;;;;;35.20;14.00;;;-1.60;71.70;;;;;;4949819;28;20036;-62
2024/01/20 06:59:02;;;;;;;35.95;15.18;;;-1.60;71.80;;;;;;4946495;28;20038;-63
2024/01/20 07:01:27;;;;;;;43.95;16.60;;;-1.60;72.00;;;;;;4947648;28;20039;-62
2024/01/20 07:03:53;;;;;;;33.53;14.27;;;-1.60;71.90;;;;;;4946264;28;20118;-63
2024/01/20 07:06:23;;;;;;;32.40;13.23;;;-1.60;72.00;;;;;;4949402;28;20118;-63
2024/01/20 07:08:49;;;;;;;34.85;15.25;;;-1.60;71.80;;;;;;4949819;28;20034;-64
2024/01/20 07:11:15;;;;;;;36.22;13.35;;;-1.70;71.90;;;;;;4945868;28;20043;-64
2024/01/20 07:13:40;;;;;;;29.25;13.48;;;-1.60;72.10;;;;;;4946565;28;20337;-64
2024/01/20 07:16:14;;;;;;;33.65;14.55;;;-1.30;72.40;;;;;;4954688;28;20050;-66
2024/01/20 07:18:41;;;;;;;33.03;14.02;;;-1.60;72.30;;;;;;4943393;28;20027;-64
2024/01/20 07:21:07;;;;;;;29.85;13.85;;;-1.60;72.30;;;;;;4952928;28;20046;-65
2024/01/20 07:23:32;;;;;;;33.28;13.20;;;-1.50;72.50;;;;;;4949345;28;20027;-64
2024/01/20 07:25:59;;;;;;;31.95;13.32;;;-1.40;72.70;;;;;;4953710;28;20038;-64
2024/01/20 07:28:25;;;;;;;28.98;13.48;;;-1.50;72.60;;;;;;4944965;28;20125;-64
2024/01/20 07:30:51;;;;;;;29.88;13.40;;;-1.20;72.60;;;;;;4946170;28;20062;-64
2024/01/20 07:33:17;;;;;;;44.13;12.85;;;-1.50;72.40;;;;;;4950603;28;20077;-64
2024/01/20 07:35:42;;;;;;;33.10;13.48;;;-1.40;72.30;;;;;;4951696;28;20050;-64
2024/01/20 07:38:09;;;;;;;32.17;15.63;;;-1.20;72.20;;;;;;4928782;29;20082;-64
2024/01/20 07:40:34;;;;;;;33.88;14.88;;;-1.40;72.20;;;;;;4952982;28;20030;-64
2024/01/20 07:43:00;;;;;;;32.85;13.88;;;-1.30;72.30;;;;;;4946349;28;20453;-65
2024/01/20 07:45:31;;;;;;;34.30;14.13;;;-1.40;72.10;;;;;;4887511;28;20704;-62
2024/01/20 07:47:57;;;;;;;48.75;20.33;;;-1.30;72.10;;;;;;4953379;28;20030;-63
2024/01/20 07:50:23;;;;;;;37.13;15.07;;;-1.40;72.10;;;;;;4945975;28;20451;-63
2024/01/20 07:52:49;;;;;;;36.20;15.13;;;-1.30;72.20;;;;;;4946103;28;20102;-64
2024/01/20 07:55:15;;;;;;;34.05;15.45;;;-1.30;72.20;;;;;;4952749;28;20031;-63
2024/01/20 07:57:40;;;;;;;33.58;14.13;;;-1.30;72.30;;;;;;4947570;28;20043;-65
2024/01/20 08:00:08;;;;;;;29.15;13.82;;;-1.20;72.30;;;;;;4947678;28;20064;-65
2024/01/20 08:02:34;;;;;;;33.17;13.52;;;-1.20;72.20;;;;;;4944451;28;20027;-63
2024/01/20 08:05:00;;;;;;;33.38;14.02;;;-1.20;72.10;;;;;;4950389;28;20057;-64
2024/01/20 08:07:26;;;;;;;34.67;16.60;;;-1.20;72.00;;;;;;4954316;28;20055;-64
2024/01/20 08:09:52;;;;;;;37.30;15.18;;;-1.10;72.00;;;;;;4948106;28;20030;-64
2024/01/20 08:12:17;;;;;;;38.83;16.88;;;-0.90;72.10;;;;;;4944913;28;20043;-63
2024/01/20 08:14:43;;;;;;;31.13;14.45;;;-0.90;71.90;;;;;;4949229;28;20037;-63
2024/01/20 08:17:09;;;;;;;54.30;27.40;;;-1.00;71.80;;;;;;4950061;28;20035;-64
2024/01/20 08:19:34;;;;;;;38.20;17.15;;;-1.00;71.80;;;;;;4947625;28;20031;-62
2024/01/20 08:22:00;;;;;;;34.90;16.38;;;-1.00;71.80;;;;;;4943836;28;20083;-63
2024/01/20 08:24:26;;;;;;;37.28;15.45;;;-0.90;71.80;;;;;;4947894;28;20033;-63
2024/01/20 08:26:51;;;;;;;32.10;16.35;;;-0.90;71.60;;;;;;4944858;28;20038;-64
2024/01/20 08:29:18;;;;;;;30.25;13.55;;;-0.90;71.50;;;;;;4945415;28;20039;-64
2024/01/20 08:31:43;;;;;;;34.50;14.55;;;-0.90;71.40;;;;;;4947722;28;20027;-63
2024/01/20 08:34:09;;;;;;;34.75;14.82;;;-0.90;71.40;;;;;;4948830;28;20398;-63
2024/01/20 08:36:35;;;;;;;33.33;15.13;;;-0.60;71.70;;;;;;4947821;28;20126;-63
2024/01/20 08:39:00;;;;;;;35.40;14.60;;;-0.80;71.70;;;;;;4946825;28;20487;-63
2024/01/20 08:41:26;;;;;;;36.63;16.20;;;-0.80;71.70;;;;;;4945607;28;20039;-63
2024/01/20 08:43:52;;;;;;;45.45;18.00;;;-0.70;71.90;;;;;;4944162;28;20904;-63
2024/01/20 08:46:18;;;;;;;69.32;29.67;;;-0.60;71.80;;;;;;4896116;28;20035;-63
2024/01/20 08:48:44;;;;;;;46.70;19.23;;;-0.60;71.90;;;;;;4944757;28;20031;-64
2024/01/20 08:51:10;;;;;;;38.70;16.52;;;-0.60;71.80;;;;;;4946381;28;20023;-64
2024/01/20 08:53:35;;;;;;;39.83;16.67;;;-0.50;71.70;;;;;;4940564;28;20026;-64
2024/01/20 08:56:03;;;;;;;36.42;15.38;;;-0.40;71.70;;;;;;4940584;28;20095;-64
2024/01/20 08:58:29;;;;;;;40.53;17.42;;;-0.50;71.50;;;;;;4937831;28;20150;-63
2024/01/20 09:00:55;;;;;;;35.80;16.80;;;-0.30;71.60;;;;;;4938626;28;20437;-64
2024/01/20 09:03:21;;;;;;;36.53;17.58;;;-0.40;71.60;;;;;;4943130;28;20533;-64
2024/01/20 09:05:47;;;;;;;34.67;16.45;;;-0.40;71.80;;;;;;4937376;28;20051;-64
2024/01/20 09:08:13;;;;;;;34.97;17.50;;;-0.40;71.60;;;;;;4940881;28;20466;-64
2024/01/20 09:10:39;;;;;;;37.40;17.15;;;-0.30;71.60;;;;;;4938478;28;20471;-66
2024/01/20 09:13:05;;;;;;;38.63;15.68;;;-0.30;71.70;;;;;;4939960;28;20106;-63
2024/01/20 09:15:31;;;;;;;32.10;14.15;;;-0.30;71.60;;;;;;4937838;28;20818;-63
2024/01/20 09:17:57;;;;;;;33.78;15.95;;;-0.30;71.60;;;;;;4939990;28;20158;-64
2024/01/20 09:20:23;;;;;;;34.65;16.30;;;-0.30;71.50;;;;;;4940003;28;20036;-64
2024/01/20 09:22:49;;;;;;;39.35;17.65;;;-0.10;71.90;;;;;;4939239;28;20498;-65
2024/01/20 09:25:15;;;;;;;43.00;18.13;;;-0.20;71.50;;;;;;4939821;28;20038;-65
2024/01/20 09:27:41;;;;;;;36.35;16.17;;;-0.20;71.50;;;;;;4939024;28;20031;-64
2024/01/20 09:30:07;;;;;;;42.30;17.08;;;-0.20;71.60;;;;;;4921170;28;20832;-63
2024/01/20 09:32:33;;;;;;;35.13;16.63;;;-0.20;71.70;;;;;;4942165;28;20027;-63
2024/01/20 09:35:03;;;;;;;34.13;15.77;;;-0.20;71.70;;;;;;4940566;28;20023;-64
2024/01/20 09:37:29;;;;;;;36.75;17.63;;;-0.10;71.90;;;;;;4940504;28;20489;-65
2024/01/20 09:39:55;;;;;;;34.53;17.25;;;0.00;71.80;;;;;;4942760;28;20109;-63
2024/01/20 09:42:21;;;;;;;36.55;16.88;;;0.00;71.80;;;;;;4943574;28;20035;-65
2024/01/20 09:44:51;;;;;;;34.67;15.82;;;0.10;71.90;;;;;;4909836;28;20253;-62
2024/01/20 09:47:18;;;;;;;36.33;16.02;;;0.20;72.00;;;;;;4944961;28;20031;-65
2024/01/20 09:49:45;;;;;;;34.30;15.60;;;0.30;72.00;;;;;;4925902;28;20128;-64
2024/01/20 09:52:15;;;;;;;28.38;14.43;;;0.30;71.50;;;;;;4925770;28;20031;-65
2024/01/20 09:54:56;;;;;;;33.13;16.00;;;0.40;71.10;;;;;;4944006;28;20045;-63
2024/01/20 09:57:23;;;;;;;30.98;15.38;;;0.40;70.60;;;;;;4943816;28;20035;-63
2024/01/20 09:59:51;;;;;;;33.40;15.75;;;0.40;70.60;;;;;;4943954;28;20062;-63
2024/01/20 10:02:19;;;;;;;30.05;14.45;;;0.40;70.50;;;;;;4943248;28;20554;-63
2024/01/20 10:04:48;;;;;;;33.78;15.82;;;0.40;70.50;;;;;;4941630;28;20056;-66
2024/01/20 10:07:31;;;;;;;27.40;13.45;;;0.60;70.50;;;;;;4940772;28;20033;-66
2024/01/20 10:09:57;;;;;;;30.25;14.35;;;0.50;70.40;;;;;;4947197;28;20039;-64
2024/01/20 10:12:23;;;;;;;60.47;30.90;;;0.50;70.40;;;;;;4943221;28;20042;-64
2024/01/20 10:14:50;;;;;;;34.72;18.42;;;0.50;70.60;;;;;;4946318;28;20082;-64
2024/01/20 10:17:15;;;;;;;33.03;16.73;;;0.60;70.90;;;;;;4942581;28;20770;-64
2024/01/20 10:19:41;;;;;;;36.92;18.13;;;0.70;70.90;;;;;;4943649;28;20039;-64
2024/01/20 10:22:11;;;;;;;31.08;14.75;;;0.90;70.90;;;;;;4945217;28;20049;-65
2024/01/20 10:24:50;;;;;;;33.63;17.17;;;0.90;71.10;;;;;;4945194;28;20480;-64
2024/01/20 10:27:20;;;;;;;33.40;17.05;;;1.00;70.90;;;;;;4942456;28;20405;-64
2024/01/20 10:29:48;;;;;;;35.88;17.73;;;1.20;70.80;;;;;;4942372;28;20093;-64
2024/01/20 10:32:14;;;;;;;32.60;16.52;;;1.30;70.80;;;;;;4942184;28;20019;-64
2024/01/20 10:34:40;;;;;;;32.78;16.13;;;1.50;70.90;;;;;;4942705;28;20086;-64
2024/01/20 10:37:10;;;;;;;38.58;20.65;;;1.70;70.80;;;;;;4943543;28;20119;-63
2024/01/20 10:39:44;;;;;;;29.67;16.38;;;1.80;70.50;;;;;;4942333;28;20019;-65
2024/01/20 10:42:12;;;;;;;34.47;16.98;;;2.00;70.30;;;;;;4943476;28;20027;-64
2024/01/20 10:44:49;;;;;;;34.85;16.95;;;2.20;70.40;;;;;;4943552;28;20641;-64
2024/01/20 10:47:22;;;;;;;33.10;16.30;;;2.30;69.80;;;;;;4940655;28;20431;-64
2024/01/20 10:49:49;;;;;;;34.28;16.38;;;2.40;69.20;;;;;;4940923;28;20020;-65
2024/01/20 10:52:15;;;;;;;31.40;16.00;;;2.40;69.00;;;;;;4941419;28;20478;-64
2024/01/20 10:54:43;;;;;;;31.52;16.92;;;2.50;68.50;;;;;;4939320;28;20243;-65
2024/01/20 10:57:09;;;;;;;31.10;16.58;;;2.60;68.30;;;;;;4943995;28;20075;-65
2024/01/20 10:59:41;;;;;;;30.45;15.73;;;2.60;68.60;;;;;;4942090;28;20065;-65
2024/01/20 11:02:11;;;;;;;39.53;20.25;;;2.70;68.60;;;;;;4941534;28;20623;-65
2024/01/20 11:04:39;;;;;;;56.60;25.88;;;2.80;68.20;;;;;;4943371;28;20047;-65
2024/01/20 11:07:08;;;;;;;47.95;23.50;;;2.90;68.00;;;;;;4941766;28;20050;-65
2024/01/20 11:09:34;;;;;;;36.35;18.33;;;3.00;67.90;;;;;;4942775;28;20045;-64
2024/01/20 11:12:02;;;;;;;34.58;17.65;;;3.00;68.00;;;;;;4940234;28;20039;-64
2024/01/20 11:14:29;;;;;;;30.73;16.40;;;3.20;68.60;;;;;;4951539;28;20402;-64
2024/01/20 11:16:56;;;;;;;26.08;15.02;;;3.30;67.80;;;;;;4946485;28;20031;-64
2024/01/20 11:19:22;;;;;;;32.35;15.52;;;3.30;67.60;;;;;;4944133;28;20024;-65
2024/01/20 11:21:48;;;;;;;31.55;16.38;;;3.40;67.40;;;;;;4945393;28;20521;-65
2024/01/20 11:24:16;;;;;;;28.58;16.13;;;3.50;67.10;;;;;;4946813;28;20511;-65
2024/01/20 11:26:41;;;;;;;31.75;16.92;;;3.60;67.00;;;;;;4941283;28;20495;-65
2024/01/20 11:29:08;;;;;;;28.42;15.82;;;3.60;66.70;;;;;;4945485;28;20039;-64
2024/01/20 11:31:34;;;;;;;34.55;20.65;;;3.70;66.60;;;;;;4943942;28;20034;-64
2024/01/20 11:34:04;;;;;;;32.42;18.63;;;3.80;66.60;;;;;;4938977;28;20054;-65
2024/01/20 11:36:33;;;;;;;35.60;20.25;;;3.80;66.30;;;;;;4949424;28;20043;-64
2024/01/20 11:39:00;;;;;;;29.92;17.23;;;3.90;66.10;;;;;;4946699;28;20027;-65
2024/01/20 11:41:26;;;;;;;25.73;15.00;;;3.90;66.10;;;;;;4944077;28;20381;-64
2024/01/20 11:43:53;;;;;;;31.15;18.60;;;4.00;66.00;;;;;;4945003;28;20027;-65
2024/01/20 11:46:20;;;;;;;26.13;14.70;;;4.10;65.60;;;;;;4856699;28;20478;-63
2024/01/20 11:48:47;;;;;;;25.10;13.52;;;4.10;65.50;;;;;;4948298;28;20046;-65
2024/01/20 11:51:12;;;;;;;27.33;15.10;;;4.20;65.30;;;;;;4948617;28;20091;-65
2024/01/20 11:53:38;;;;;;;22.10;12.85;;;4.30;64.90;;;;;;4946881;28;20170;-64
2024/01/20 11:56:05;;;;;;;24.52;14.18;;;4.30;64.90;;;;;;4946494;28;20038;-64
2024/01/20 11:58:31;;;;;;;24.63;13.13;;;4.40;64.90;;;;;;4945486;28;20035;-64
2024/01/20 12:00:58;;;;;;;23.92;12.80;;;4.50;65.20;;;;;;4946742;28;20046;-65
2024/01/20 12:03:27;;;;;;;23.17;12.80;;;4.50;65.60;;;;;;4947670;28;20030;-64
2024/01/20 12:05:53;;;;;;;23.83;13.60;;;4.60;64.50;;;;;;4944835;28;20078;-65
2024/01/20 12:08:20;;;;;;;26.90;14.30;;;4.60;64.20;;;;;;4948203;28;20111;-64
2024/01/20 12:10:46;;;;;;;30.10;14.15;;;4.70;64.20;;;;;;4944329;28;20027;-64
2024/01/20 12:13:12;;;;;;;22.08;12.02;;;4.70;64.40;;;;;;4944347;28;20066;-66
2024/01/20 12:15:39;;;;;;;22.70;12.70;;;4.70;63.60;;;;;;4936679;28;20034;-66
2024/01/20 12:18:05;;;;;;;19.27;11.20;;;4.70;63.30;;;;;;4946177;28;20098;-65
2024/01/20 12:20:31;;;;;;;20.75;11.50;;;4.70;63.00;;;;;;4942725;28;20023;-65
2024/01/20 12:23:00;;;;;;;18.30;10.85;;;4.70;63.00;;;;;;4943251;28;20027;-64
2024/01/20 12:25:26;;;;;;;20.27;11.10;;;4.80;62.80;;;;;;4951017;28;20394;-64